createdAt,value
2019-02-27T00:01:58.786Z,44.17
2019-02-27T00:04:27.640Z,44.63
2019-02-27T00:06:56.483Z,44.67
2019-02-27T00:09:25.339Z,44.83
2019-02-27T00:11:54.344Z,44.73
2019-02-27T00:14:23.257Z,44.50
2019-02-27T00:16:52.281Z,45.37
2019-02-27T00:19:21.113Z,44.67
2019-02-27T00:21:49.914Z,44.57
2019-02-27T00:24:18.952Z,43.73
2019-02-27T00:26:47.793Z,42.80
2019-02-27T00:29:16.658Z,43.50
2019-02-27T00:31:46.427Z,43.07
2019-02-27T00:34:15.497Z,42.33
2019-02-27T00:36:45.191Z,43.03
2019-02-27T00:39:14.652Z,42.23
2019-02-27T00:41:46.031Z,43.60
2019-02-27T00:44:14.286Z,42.13
2019-02-27T00:46:43.956Z,44.63
2019-02-27T00:49:13.739Z,43.70
2019-02-27T00:51:44.704Z,45.37
2019-02-27T00:54:15.879Z,45.20
2019-02-27T00:56:45.564Z,44.33
2019-02-27T00:59:14.790Z,44.00
2019-02-27T01:01:47.240Z,42.47
2019-02-27T01:04:14.295Z,43.77
2019-02-27T01:06:45.056Z,44.43
2019-02-27T01:09:14.397Z,42.03
2019-02-27T01:11:43.241Z,44.63
2019-02-27T01:14:12.077Z,41.97
2019-02-27T01:16:40.965Z,43.97
2019-02-27T01:19:10.018Z,42.17
2019-02-27T01:21:39.044Z,42.33
2019-02-27T01:24:08.047Z,42.03
2019-02-27T01:26:36.995Z,43.40
2019-02-27T01:29:05.951Z,44.67
2019-02-27T01:31:35.075Z,44.20
2019-02-27T01:34:04.083Z,40.60
2019-02-27T01:36:32.947Z,41.93
2019-02-27T01:39:01.794Z,42.30
2019-02-27T01:41:30.758Z,41.77
2019-02-27T01:43:59.672Z,43.27
2019-02-27T01:46:28.687Z,41.77
2019-02-27T01:48:57.615Z,43.57
2019-02-27T01:51:28.256Z,40.77
2019-02-27T01:53:57.097Z,42.00
2019-02-27T01:56:28.915Z,41.10
2019-02-27T01:58:56.595Z,41.80
2019-02-27T02:01:29.838Z,41.40
2019-02-27T02:03:56.205Z,40.83
2019-02-27T02:06:25.029Z,41.53
2019-02-27T02:09:10.155Z,42.47
2019-02-27T02:11:41.124Z,40.60
2019-02-27T02:14:38.563Z,41.60
2019-02-27T02:17:33.246Z,41.07
2019-02-27T02:20:29.065Z,39.63
2019-02-27T02:23:47.930Z,41.93
2019-02-27T02:26:57.260Z,39.80
2019-02-27T02:30:05.934Z,41.47
2019-02-27T02:32:53.224Z,39.10
2019-02-27T02:35:54.055Z,39.20
2019-02-27T02:38:55.119Z,39.47
2019-02-27T02:41:46.345Z,37.30
2019-02-27T02:44:59.381Z,37.63
2019-02-27T02:47:43.034Z,36.27
2019-02-27T02:50:33.480Z,37.57
2019-02-27T02:53:27.945Z,38.70
2019-02-27T02:56:24.832Z,39.20
2019-02-27T02:59:28.956Z,38.93
2019-02-27T03:02:11.139Z,39.63
2019-02-27T03:05:23.309Z,38.67
2019-02-27T03:08:05.018Z,40.73
2019-02-27T03:10:48.431Z,41.67
2019-02-27T03:13:53.232Z,41.47
2019-02-27T03:16:41.458Z,42.13
2019-02-27T03:19:41.262Z,40.70
2019-02-27T03:22:29.189Z,40.43
2019-02-27T03:25:22.912Z,41.23
2019-02-27T03:28:40.661Z,42.97
2019-02-27T03:31:30.403Z,40.83
2019-02-27T03:34:26.381Z,39.10
2019-02-27T03:37:16.514Z,39.67
2019-02-27T03:40:14.574Z,39.70
2019-02-27T03:42:58.384Z,40.30
2019-02-27T03:45:55.761Z,39.57
2019-02-27T03:48:31.617Z,40.73
2019-02-27T03:51:25.661Z,40.53
2019-02-27T03:54:32.239Z,40.40
2019-02-27T03:57:34.328Z,39.50
2019-02-27T04:00:59.753Z,42.80
2019-02-27T04:04:01.311Z,41.50
2019-02-27T04:06:57.268Z,40.00
2019-02-27T04:09:26.291Z,40.03
2019-02-27T04:11:55.532Z,40.47
2019-02-27T04:14:28.067Z,40.57
2019-02-27T04:16:57.342Z,39.20
2019-02-27T04:19:26.375Z,40.37
2019-02-27T04:22:00.612Z,39.13
2019-02-27T04:24:25.974Z,40.63
2019-02-27T04:26:54.875Z,40.07
2019-02-27T04:29:23.808Z,39.70
2019-02-27T04:31:52.695Z,39.83
2019-02-27T04:34:21.552Z,40.80
2019-02-27T04:36:50.471Z,41.33
2019-02-27T04:39:19.369Z,40.20
2019-02-27T04:41:49.570Z,40.43
2019-02-27T04:44:19.005Z,41.07
2019-02-27T04:46:48.315Z,39.87
2019-02-27T04:49:17.184Z,39.03
2019-02-27T04:51:48.057Z,39.13
2019-02-27T04:54:16.820Z,38.27
2019-02-27T04:56:45.705Z,38.80
2019-02-27T04:59:18.414Z,37.80
2019-02-27T05:01:45.417Z,39.37
2019-02-27T05:04:14.538Z,39.20
2019-02-27T05:06:46.861Z,37.43
2019-02-27T05:09:14.108Z,38.60
2019-02-27T05:11:47.493Z,40.37
2019-02-27T05:14:14.196Z,37.60
2019-02-27T05:16:46.991Z,37.57
2019-02-27T05:19:15.281Z,37.43
2019-02-27T05:21:44.267Z,37.83
2019-02-27T05:24:13.229Z,37.23
2019-02-27T05:26:42.149Z,37.27
2019-02-27T05:29:12.549Z,35.67
2019-02-27T05:31:41.423Z,35.60
2019-02-27T05:34:13.602Z,33.20
2019-02-27T05:36:44.035Z,35.37
2019-02-27T05:39:14.957Z,35.80
2019-02-27T05:41:44.281Z,35.17
2019-02-27T05:44:13.310Z,34.93
2019-02-27T05:46:42.478Z,34.73
2019-02-27T05:49:11.468Z,36.13
2019-02-27T05:51:40.412Z,35.27
2019-02-27T05:54:09.474Z,36.90
2019-02-27T05:56:38.676Z,35.30
2019-02-27T05:59:07.693Z,38.20
2019-02-27T06:01:38.184Z,35.17
2019-02-27T06:04:08.030Z,35.30
2019-02-27T06:06:38.304Z,35.03
2019-02-27T06:09:10.081Z,34.30
2019-02-27T06:11:38.288Z,34.57
2019-02-27T06:14:07.275Z,33.23
2019-02-27T06:16:37.547Z,32.47
2019-02-27T06:19:07.043Z,32.10
2019-02-27T06:21:35.976Z,32.90
2019-02-27T06:24:05.621Z,33.30
2019-02-27T06:26:34.490Z,34.60
2019-02-27T06:29:03.735Z,33.33
2019-02-27T06:31:36.497Z,31.87
2019-02-27T06:34:03.486Z,33.00
2019-02-27T06:36:32.532Z,32.73
2019-02-27T06:39:01.424Z,34.50
2019-02-27T06:41:30.446Z,31.33
2019-02-27T06:44:01.515Z,31.20
2019-02-27T06:46:29.976Z,32.63
2019-02-27T06:48:59.080Z,31.20
2019-02-27T06:51:28.040Z,30.63
2019-02-27T06:53:57.014Z,31.40
2019-02-27T06:56:27.832Z,31.73
2019-02-27T06:58:56.784Z,30.63
2019-02-27T07:01:25.657Z,30.10
2019-02-27T07:03:54.820Z,29.73
2019-02-27T07:06:24.003Z,29.27
2019-02-27T07:08:53.019Z,29.37
2019-02-27T07:11:22.065Z,29.30
2019-02-27T07:13:51.503Z,28.90
2019-02-27T07:16:22.931Z,28.00
2019-02-27T07:18:51.475Z,27.43
2019-02-27T07:21:20.606Z,28.00
2019-02-27T07:23:49.589Z,27.40
2019-02-27T07:26:18.928Z,26.47
2019-02-27T07:28:48.776Z,27.37
2019-02-27T07:31:18.404Z,26.27
2019-02-27T07:33:47.512Z,26.20
2019-02-27T07:36:16.548Z,26.93
2019-02-27T07:38:45.713Z,24.30
2019-02-27T07:41:17.538Z,26.97
2019-02-27T07:43:45.496Z,24.20
2019-02-27T07:46:14.490Z,24.93
2019-02-27T07:48:43.446Z,23.67
2019-02-27T07:51:12.726Z,24.13
2019-02-27T07:53:41.690Z,24.60
2019-02-27T07:56:10.714Z,25.37
2019-02-27T07:58:39.616Z,25.40
2019-02-27T08:01:08.828Z,26.13
2019-02-27T08:03:37.931Z,24.63
2019-02-27T08:06:07.036Z,24.43
2019-02-27T08:08:36.019Z,26.17
2019-02-27T08:11:05.148Z,23.90
2019-02-27T08:13:34.271Z,25.10
2019-02-27T08:16:03.469Z,25.97
2019-02-27T08:18:36.624Z,24.80
2019-02-27T08:21:03.233Z,25.57
2019-02-27T08:23:32.907Z,24.93
2019-02-27T08:26:04.791Z,24.43
2019-02-27T08:28:32.643Z,24.90
2019-02-27T08:31:01.651Z,25.83
2019-02-27T08:33:30.786Z,24.27
2019-02-27T08:35:59.826Z,23.80
2019-02-27T08:38:28.656Z,24.13
2019-02-27T08:40:58.495Z,24.43
2019-02-27T08:43:27.763Z,23.90
2019-02-27T08:45:56.782Z,24.80
2019-02-27T08:48:25.833Z,24.07
2019-02-27T08:50:54.827Z,25.97
2019-02-27T08:53:26.881Z,24.60
2019-02-27T08:55:54.598Z,24.67
2019-02-27T08:58:26.743Z,24.37
2019-02-27T09:00:55.722Z,24.27
2019-02-27T09:03:24.793Z,24.27
2019-02-27T09:05:54.702Z,23.83
2019-02-27T09:08:24.025Z,24.47
2019-02-27T09:10:53.215Z,24.60
2019-02-27T09:13:22.289Z,23.83
2019-02-27T09:15:51.309Z,23.83
2019-02-27T09:18:20.265Z,25.17
2019-02-27T09:20:53.051Z,25.33
2019-02-27T09:23:20.081Z,24.40
2019-02-27T09:25:56.987Z,24.13
2019-02-27T09:28:19.909Z,23.80
2019-02-27T09:30:48.957Z,25.77
2019-02-27T09:33:20.012Z,24.10
2019-02-27T09:35:50.260Z,25.30
2019-02-27T09:38:24.093Z,24.23
2019-02-27T09:40:50.339Z,24.80
2019-02-27T09:43:19.443Z,24.03
2019-02-27T09:45:48.509Z,23.63
2019-02-27T09:48:19.278Z,24.57
2019-02-27T09:50:49.083Z,20.77
2019-02-27T09:53:18.359Z,21.43
2019-02-27T09:55:47.400Z,21.27
2019-02-27T09:58:16.368Z,20.40
2019-02-27T10:00:47.463Z,20.63
2019-02-27T10:03:19.894Z,20.30
2019-02-27T10:05:49.483Z,19.77
2019-02-27T10:08:18.559Z,19.80
2019-02-27T10:10:47.804Z,19.57
2019-02-27T10:13:17.157Z,19.63
2019-02-27T10:15:46.245Z,19.73
2019-02-27T10:18:19.068Z,18.63
2019-02-27T10:20:47.355Z,19.73
2019-02-27T10:23:16.539Z,19.47
2019-02-27T10:25:45.709Z,20.43
2019-02-27T10:28:14.825Z,19.47
2019-02-27T10:30:44.234Z,20.03
2019-02-27T10:33:13.355Z,19.83
2019-02-27T10:35:42.794Z,21.77
2019-02-27T10:38:11.789Z,19.37
2019-02-27T10:40:40.919Z,18.30
2019-02-27T10:43:21.070Z,19.33
2019-02-27T10:45:49.759Z,18.80
2019-02-27T10:48:18.861Z,19.30
2019-02-27T10:50:47.929Z,17.30
2019-02-27T10:53:17.005Z,17.47
2019-02-27T10:55:46.470Z,17.23
2019-02-27T10:58:16.619Z,17.40
2019-02-27T11:00:47.037Z,17.13
2019-02-27T11:03:16.328Z,16.53
2019-02-27T11:05:45.581Z,15.77
2019-02-27T11:08:14.571Z,15.47
2019-02-27T11:10:43.610Z,15.40
2019-02-27T11:13:12.606Z,16.97
2019-02-27T11:15:44.050Z,15.73
2019-02-27T11:18:14.442Z,15.83
2019-02-27T11:20:43.473Z,16.07
2019-02-27T11:23:12.498Z,16.77
2019-02-27T11:25:41.499Z,16.07
2019-02-27T11:28:11.004Z,15.40
2019-02-27T11:30:40.211Z,15.07
2019-02-27T11:33:09.363Z,14.90
2019-02-27T11:35:38.413Z,14.90
2019-02-27T11:38:07.615Z,15.40
2019-02-27T11:40:41.748Z,15.07
2019-02-27T11:43:07.670Z,13.90
2019-02-27T11:45:36.882Z,13.90
2019-02-27T11:48:06.078Z,14.93
2019-02-27T11:50:35.265Z,14.70
2019-02-27T11:53:04.590Z,15.30
2019-02-27T11:55:33.643Z,15.73
2019-02-27T11:58:05.439Z,13.90
2019-02-27T12:00:33.932Z,13.73
2019-02-27T12:03:02.886Z,13.47
2019-02-27T12:05:34.249Z,12.60
2019-02-27T12:08:02.898Z,13.97
2019-02-27T12:10:32.031Z,12.17
2019-02-27T12:13:01.647Z,12.90
2019-02-27T12:15:30.831Z,13.03
2019-02-27T12:18:01.322Z,11.57
2019-02-27T12:20:30.888Z,11.40
2019-02-27T12:23:00.018Z,12.70
2019-02-27T12:25:30.097Z,11.23
2019-02-27T12:28:00.106Z,12.23
2019-02-27T12:30:29.404Z,13.40
2019-02-27T12:32:58.559Z,12.27
2019-02-27T12:35:28.881Z,12.50
2019-02-27T12:37:57.825Z,13.07
2019-02-27T12:40:26.933Z,12.70
2019-02-27T12:42:56.158Z,12.93
2019-02-27T12:45:26.638Z,13.33
2019-02-27T12:47:56.026Z,11.90
2019-02-27T12:50:26.846Z,13.43
2019-02-27T12:52:56.466Z,12.70
2019-02-27T12:55:25.971Z,13.10
2019-02-27T12:57:57.540Z,12.37
2019-02-27T13:00:30.358Z,12.77
2019-02-27T13:02:59.496Z,12.70
2019-02-27T13:05:28.898Z,11.73
2019-02-27T13:07:58.359Z,11.00
2019-02-27T13:10:33.179Z,10.67
2019-02-27T13:12:58.314Z,9.73
2019-02-27T13:15:27.420Z,9.63
2019-02-27T13:17:58.034Z,8.73
2019-02-27T13:20:27.422Z,8.73
2019-02-27T13:22:56.366Z,7.50
2019-02-27T13:25:25.557Z,7.77
2019-02-27T13:27:54.624Z,7.83
2019-02-27T13:30:23.902Z,7.13
2019-02-27T13:32:54.657Z,7.43
2019-02-27T13:35:24.051Z,7.50
2019-02-27T13:37:53.156Z,7.33
2019-02-27T13:40:22.289Z,8.03
2019-02-27T13:42:53.396Z,7.50
2019-02-27T13:45:24.027Z,6.90
2019-02-27T13:47:53.106Z,8.10
2019-02-27T13:50:25.664Z,7.93
2019-02-27T13:52:53.080Z,8.07
2019-02-27T13:55:22.502Z,7.60
2019-02-27T13:57:51.594Z,7.07
2019-02-27T14:00:25.451Z,7.20
2019-02-27T14:02:54.495Z,8.33
2019-02-27T14:05:23.700Z,6.90
2019-02-27T14:07:57.258Z,7.37
2019-02-27T14:10:24.155Z,7.70
2019-02-27T14:12:53.373Z,7.67
2019-02-27T14:15:26.790Z,8.17
2019-02-27T14:17:53.116Z,7.80
2019-02-27T14:20:26.914Z,8.57
2019-02-27T14:22:55.394Z,8.37
2019-02-27T14:25:28.200Z,8.30
2019-02-27T14:27:56.255Z,9.00
2019-02-27T14:30:27.745Z,8.30
2019-02-27T14:32:57.236Z,7.80
2019-02-27T14:35:26.234Z,8.33
2019-02-27T14:37:55.429Z,8.20
2019-02-27T14:40:24.510Z,8.50
2019-02-27T14:42:55.035Z,9.33
2019-02-27T14:45:24.302Z,9.53
2019-02-27T14:47:53.353Z,9.00
2019-02-27T14:50:22.794Z,9.03
2019-02-27T14:52:51.988Z,7.90
2019-02-27T14:55:21.238Z,8.70
2019-02-27T14:57:51.346Z,8.20
2019-02-27T15:00:25.419Z,8.57
2019-02-27T15:02:55.577Z,8.50
2019-02-27T15:05:25.675Z,8.97
2019-02-27T15:07:54.997Z,7.97
2019-02-27T15:10:26.429Z,8.37
2019-02-27T15:12:55.708Z,8.50
2019-02-27T15:15:29.149Z,8.20
2019-02-27T15:17:58.242Z,8.10
2019-02-27T15:20:27.625Z,8.60
2019-02-27T15:22:57.301Z,8.17
2019-02-27T15:25:27.570Z,8.47
2019-02-27T15:27:58.815Z,8.03
2019-02-27T15:30:28.373Z,7.93
2019-02-27T15:32:57.399Z,8.07
2019-02-27T15:35:28.402Z,8.40
2019-02-27T15:37:57.855Z,8.23
2019-02-27T15:40:29.595Z,7.77
2019-02-27T15:42:57.983Z,8.20
2019-02-27T15:45:27.228Z,8.23
2019-02-27T15:47:56.463Z,8.10
2019-02-27T15:50:25.787Z,7.70
2019-02-27T15:52:54.829Z,7.87
2019-02-27T15:55:23.863Z,7.60
2019-02-27T15:57:54.073Z,7.97
2019-02-27T16:00:24.112Z,8.63
2019-02-27T16:02:53.434Z,7.80
2019-02-27T16:05:22.874Z,8.17
2019-02-27T16:07:52.047Z,7.77
2019-02-27T16:10:21.921Z,7.87
2019-02-27T16:12:51.042Z,8.40
2019-02-27T16:15:20.513Z,9.07
2019-02-27T16:17:51.574Z,8.30
2019-02-27T16:20:20.840Z,8.23
2019-02-27T16:22:53.819Z,8.20
2019-02-27T16:25:23.074Z,8.67
2019-02-27T16:27:52.269Z,8.97
2019-02-27T16:30:31.339Z,7.80
2019-02-27T16:32:57.947Z,8.70
2019-02-27T16:35:27.269Z,8.27
2019-02-27T16:37:57.783Z,7.63
2019-02-27T16:40:27.329Z,8.43
2019-02-27T16:42:56.417Z,8.37
2019-02-27T16:45:32.284Z,9.00
2019-02-27T16:47:58.697Z,9.37
2019-02-27T16:50:28.915Z,8.27
2019-02-27T16:52:58.045Z,8.43
2019-02-27T16:55:27.455Z,9.53
2019-02-27T16:57:57.619Z,9.77
2019-02-27T17:00:28.258Z,8.13
2019-02-27T17:02:58.296Z,9.20
2019-02-27T17:05:27.608Z,8.90
2019-02-27T17:08:00.957Z,9.87
2019-02-27T17:10:29.703Z,10.90
2019-02-27T17:12:59.121Z,10.80
2019-02-27T17:15:28.256Z,9.07
2019-02-27T17:17:57.333Z,9.00
2019-02-27T17:20:26.576Z,9.70
2019-02-27T17:22:55.883Z,9.90
2019-02-27T17:25:29.023Z,9.90
2019-02-27T17:27:55.839Z,9.73
2019-02-27T17:30:27.459Z,9.87
2019-02-27T17:32:57.011Z,10.40
2019-02-27T17:35:26.450Z,10.07
2019-02-27T17:37:55.829Z,10.90
2019-02-27T17:40:29.207Z,11.43
2019-02-27T17:42:58.843Z,10.63
2019-02-27T17:45:29.626Z,10.97
2019-02-27T17:47:58.863Z,12.23
2019-02-27T17:50:30.932Z,22.33
2019-02-27T17:52:58.937Z,28.47
2019-02-27T17:55:28.441Z,24.37
2019-02-27T17:57:58.387Z,19.30
2019-02-27T18:00:37.240Z,15.80
2019-02-27T18:03:06.217Z,14.87
2019-02-27T18:05:35.189Z,14.30
2019-02-27T18:08:04.467Z,14.03
2019-02-27T18:10:37.275Z,13.20
2019-02-27T18:13:04.672Z,19.20
2019-02-27T18:15:36.038Z,70.27
2019-02-27T18:18:07.470Z,35.33
2019-02-27T18:20:37.426Z,43.93
2019-02-27T18:23:06.635Z,44.13
2019-02-27T18:25:41.152Z,44.50
2019-02-27T18:28:06.634Z,29.10
2019-02-27T18:30:36.017Z,16.47
2019-02-27T18:33:04.968Z,18.30
2019-02-27T18:35:34.119Z,13.80
2019-02-27T18:38:03.107Z,13.47
2019-02-27T18:40:34.222Z,13.53
2019-02-27T18:43:03.277Z,13.10
2019-02-27T18:45:32.309Z,12.07
2019-02-27T18:48:01.466Z,11.30
2019-02-27T18:50:30.677Z,10.90
2019-02-27T18:52:59.768Z,11.13
2019-02-27T18:55:30.891Z,11.50
2019-02-27T18:57:59.680Z,11.47
2019-02-27T19:00:29.399Z,325.97
2019-02-27T19:02:58.845Z,224.77
2019-02-27T19:05:27.970Z,49.63
2019-02-27T19:07:57.376Z,17.67
2019-02-27T19:10:26.776Z,37.40
2019-02-27T19:12:55.790Z,26.23
2019-02-27T19:15:25.445Z,26.07
2019-02-27T19:17:54.585Z,29.50
2019-02-27T19:20:26.475Z,26.70
2019-02-27T19:22:55.620Z,23.30
2019-02-27T19:25:24.874Z,17.70
2019-02-27T19:27:54.231Z,14.70
2019-02-27T19:30:34.732Z,13.27
2019-02-27T19:33:04.231Z,12.73
2019-02-27T19:35:33.422Z,13.37
2019-02-27T19:38:02.504Z,11.00
2019-02-27T19:40:31.806Z,11.73
2019-02-27T19:43:01.922Z,12.23
2019-02-27T19:45:31.120Z,11.27
2019-02-27T19:48:00.284Z,12.60
2019-02-27T19:50:29.863Z,12.23
2019-02-27T19:53:05.122Z,44.23
2019-02-27T19:55:31.306Z,67.47
2019-02-27T19:58:00.494Z,53.37
2019-02-27T20:00:33.848Z,37.97
2019-02-27T20:03:02.805Z,46.47
2019-02-27T20:05:50.523Z,19.87
2019-02-27T20:08:44.395Z,13.57
2019-02-27T20:11:09.450Z,12.47
2019-02-27T20:13:39.938Z,11.60
2019-02-27T20:16:12.581Z,12.07
2019-02-27T20:18:44.287Z,13.07
2019-02-27T20:21:13.570Z,11.80
2019-02-27T20:23:43.384Z,12.87
2019-02-27T20:26:14.221Z,12.83
2019-02-27T20:28:43.992Z,14.93
2019-02-27T20:31:17.947Z,29.20
2019-02-27T20:33:46.276Z,17.33
2019-02-27T20:36:16.178Z,13.40
2019-02-27T20:38:50.691Z,12.53
2019-02-27T20:41:20.542Z,11.77
2019-02-27T20:43:49.684Z,11.57
2019-02-27T20:46:18.988Z,11.33
2019-02-27T20:48:48.157Z,23.77
2019-02-27T20:51:17.266Z,81.43
2019-02-27T20:53:46.490Z,197.63
2019-02-27T20:56:15.534Z,103.70
2019-02-27T20:58:44.747Z,28.63
2019-02-27T21:01:14.013Z,15.17
2019-02-27T21:03:43.205Z,12.83
2019-02-27T21:06:12.759Z,12.97
2019-02-27T21:08:43.464Z,12.77
2019-02-27T21:11:15.123Z,12.00
2019-02-27T21:13:49.446Z,10.77
2019-02-27T21:16:15.739Z,11.37
2019-02-27T21:18:45.565Z,10.73
2019-02-27T21:21:17.046Z,22.77
2019-02-27T21:23:46.618Z,95.83
2019-02-27T21:26:20.003Z,105.73
2019-02-27T21:28:58.265Z,41.30
2019-02-27T21:31:27.637Z,18.20
2019-02-27T21:33:54.471Z,11.00
2019-02-27T21:36:24.464Z,10.97
2019-02-27T21:38:53.871Z,11.60
2019-02-27T21:41:23.516Z,11.53
2019-02-27T21:43:52.752Z,11.23
2019-02-27T21:46:22.893Z,10.57
2019-02-27T21:48:52.310Z,10.33
2019-02-27T21:51:23.056Z,10.40
2019-02-27T21:53:52.274Z,8.97
2019-02-27T21:56:23.341Z,8.70
2019-02-27T21:58:52.319Z,9.57
2019-02-27T22:01:22.034Z,9.03
2019-02-27T22:03:53.192Z,8.40
2019-02-27T22:06:24.664Z,9.73
2019-02-27T22:08:53.420Z,10.27
2019-02-27T22:11:27.061Z,55.23
2019-02-27T22:13:56.776Z,38.57
2019-02-27T22:16:29.513Z,15.00
2019-02-27T22:18:56.663Z,8.73
2019-02-27T22:21:28.132Z,8.07
2019-02-27T22:23:57.289Z,7.20
2019-02-27T22:26:26.735Z,7.10
2019-02-27T22:28:55.750Z,7.10
2019-02-27T22:31:24.793Z,7.83
2019-02-27T22:33:56.075Z,7.30
2019-02-27T22:36:24.309Z,7.30
2019-02-27T22:38:53.248Z,7.57
2019-02-27T22:41:22.426Z,7.37
2019-02-27T22:43:53.205Z,7.37
2019-02-27T22:46:22.088Z,6.90
2019-02-27T22:48:51.524Z,7.37
2019-02-27T22:51:20.501Z,6.70
2019-02-27T22:53:49.781Z,7.10
2019-02-27T22:56:18.742Z,7.10
2019-02-27T22:58:51.677Z,6.87
2019-02-27T23:01:27.989Z,7.10
2019-02-27T23:03:59.806Z,7.60
2019-02-27T23:06:29.288Z,8.07
2019-02-27T23:08:58.606Z,7.17
2019-02-27T23:11:30.126Z,7.40
2019-02-27T23:14:00.503Z,7.40
2019-02-27T23:16:29.938Z,7.23
2019-02-27T23:18:59.885Z,8.00
2019-02-27T23:21:28.982Z,7.27
2019-02-27T23:23:57.963Z,6.80
2019-02-27T23:26:27.124Z,6.63
2019-02-27T23:28:56.095Z,7.57
2019-02-27T23:31:25.098Z,7.60
2019-02-27T23:33:54.004Z,7.03
2019-02-27T23:36:26.250Z,7.00
2019-02-27T23:38:57.756Z,6.63
2019-02-27T23:41:29.063Z,6.40
2019-02-27T23:43:57.791Z,6.93
2019-02-27T23:46:26.944Z,7.47
2019-02-27T23:48:55.810Z,6.60
2019-02-27T23:51:25.273Z,6.73
2019-02-27T23:53:54.765Z,6.27
2019-02-27T23:56:24.839Z,6.87
2019-02-27T23:58:53.895Z,6.93
